createdAt,value
2022-12-23T00:00:40.218Z,7.30
2022-12-23T00:03:07.523Z,7.30
2022-12-23T00:05:38.912Z,7.30
2022-12-23T00:08:07.110Z,7.30
2022-12-23T00:10:37.965Z,7.30
2022-12-23T00:13:23.401Z,7.30
2022-12-23T00:15:50.372Z,7.30
2022-12-23T00:18:17.307Z,7.40
2022-12-23T00:20:44.263Z,7.40
2022-12-23T00:23:11.191Z,7.30
2022-12-23T00:25:43.979Z,7.40
2022-12-23T00:28:19.804Z,7.30
2022-12-23T00:30:52.794Z,7.30
2022-12-23T00:33:25.382Z,7.30
2022-12-23T00:35:53.108Z,7.30
2022-12-23T00:38:41.440Z,7.30
2022-12-23T00:41:32.180Z,7.30
2022-12-23T00:43:59.672Z,7.40
2022-12-23T00:46:26.938Z,7.40
2022-12-23T00:49:12.455Z,7.40
2022-12-23T00:51:39.426Z,7.40
2022-12-23T00:54:07.093Z,7.40
2022-12-23T00:56:34.200Z,7.40
2022-12-23T00:59:01.228Z,7.40
2022-12-23T01:01:46.612Z,7.40
2022-12-23T01:04:33.730Z,7.40
2022-12-23T01:07:00.738Z,7.40
2022-12-23T01:09:28.054Z,7.50
2022-12-23T01:11:55.050Z,7.40
2022-12-23T01:14:22.309Z,7.40
2022-12-23T01:16:49.327Z,7.50
2022-12-23T01:19:16.611Z,7.50
2022-12-23T01:21:43.617Z,7.40
2022-12-23T01:24:10.541Z,7.40
2022-12-23T01:26:37.482Z,7.40
2022-12-23T01:29:04.449Z,7.40
2022-12-23T01:31:31.838Z,7.40
2022-12-23T01:33:58.869Z,7.50
2022-12-23T01:36:26.383Z,7.40
2022-12-23T01:38:55.185Z,7.40
2022-12-23T01:41:51.539Z,7.40
2022-12-23T01:44:46.247Z,7.40
2022-12-23T01:47:23.648Z,7.40
2022-12-23T01:49:52.727Z,7.40
2022-12-23T01:52:20.210Z,7.40
2022-12-23T01:54:47.178Z,7.50
2022-12-23T01:57:14.329Z,7.50
2022-12-23T02:00:01.208Z,7.50
2022-12-23T02:02:50.545Z,7.60
2022-12-23T02:05:17.988Z,7.60
2022-12-23T02:08:03.570Z,7.70
2022-12-23T02:10:44.285Z,7.80
2022-12-23T02:14:03.257Z,7.80
2022-12-23T02:16:33.920Z,7.90
2022-12-23T02:19:10.309Z,7.90
2022-12-23T02:21:46.125Z,7.90
2022-12-23T02:24:34.332Z,7.90
2022-12-23T02:27:28.790Z,8.00
2022-12-23T02:30:23.536Z,8.00
2022-12-23T02:33:14.763Z,8.00
2022-12-23T02:35:55.873Z,8.10
2022-12-23T02:38:40.535Z,8.10
2022-12-23T02:41:30.251Z,8.10
2022-12-23T02:43:59.859Z,8.20
2022-12-23T02:46:34.433Z,8.20
2022-12-23T02:49:20.750Z,8.10
2022-12-23T02:51:53.960Z,8.20
2022-12-23T02:54:29.755Z,8.20
2022-12-23T02:56:59.030Z,8.20
2022-12-23T02:59:35.381Z,8.20
2022-12-23T03:02:02.383Z,8.20
2022-12-23T03:04:29.366Z,8.20
2022-12-23T03:07:04.343Z,8.40
2022-12-23T03:09:45.851Z,8.40
2022-12-23T03:12:28.688Z,8.40
2022-12-23T03:15:01.416Z,8.40
2022-12-23T03:17:36.556Z,8.40
2022-12-23T03:20:27.229Z,8.60
2022-12-23T03:23:12.907Z,8.60
2022-12-23T03:25:47.531Z,8.50
2022-12-23T03:28:40.692Z,8.60
2022-12-23T03:31:14.685Z,8.60
2022-12-23T03:33:45.147Z,8.70
2022-12-23T03:36:23.691Z,8.70
2022-12-23T03:38:54.124Z,8.80
2022-12-23T03:41:28.108Z,8.80
2022-12-23T03:44:16.803Z,8.80
2022-12-23T03:46:53.029Z,8.80
2022-12-23T03:49:35.341Z,8.80
2022-12-23T03:52:22.698Z,8.80
2022-12-23T03:54:56.236Z,8.90
2022-12-23T03:57:45.796Z,9.00
2022-12-23T04:00:13.166Z,9.00
2022-12-23T04:02:52.119Z,9.00
2022-12-23T04:05:28.530Z,9.00
2022-12-23T04:08:08.193Z,9.10
2022-12-23T04:10:35.800Z,9.10
2022-12-23T04:13:02.807Z,9.20
2022-12-23T04:15:29.974Z,9.20
2022-12-23T04:17:57.821Z,9.20
2022-12-23T04:20:25.579Z,9.20
2022-12-23T04:22:52.556Z,9.30
2022-12-23T04:25:19.757Z,9.30
2022-12-23T04:27:46.831Z,9.30
2022-12-23T04:30:14.078Z,9.40
2022-12-23T04:32:41.867Z,9.40
2022-12-23T04:35:09.793Z,9.40
2022-12-23T04:37:36.817Z,9.40
2022-12-23T04:40:05.184Z,9.40
2022-12-23T04:42:32.123Z,9.40
2022-12-23T04:44:59.161Z,9.40
2022-12-23T04:47:26.724Z,9.40
2022-12-23T04:49:53.676Z,9.40
2022-12-23T04:52:20.885Z,9.40
2022-12-23T04:54:47.875Z,9.40
2022-12-23T04:57:16.399Z,9.40
2022-12-23T04:59:43.578Z,9.40
2022-12-23T05:02:10.922Z,9.40
2022-12-23T05:04:38.107Z,9.40
2022-12-23T05:07:06.055Z,9.30
2022-12-23T05:09:33.064Z,9.30
2022-12-23T05:12:00.170Z,9.30
2022-12-23T05:14:27.168Z,9.40
2022-12-23T05:16:54.218Z,9.40
2022-12-23T05:19:21.243Z,9.30
2022-12-23T05:21:49.295Z,9.40
2022-12-23T05:24:18.755Z,9.40
2022-12-23T05:26:52.829Z,9.40
2022-12-23T05:29:24.670Z,9.40
2022-12-23T05:31:51.661Z,9.40
2022-12-23T05:34:18.767Z,9.30
2022-12-23T05:36:45.771Z,9.20
2022-12-23T05:39:12.821Z,9.10
2022-12-23T05:41:39.758Z,9.10
2022-12-23T05:44:06.720Z,9.00
2022-12-23T05:46:34.733Z,9.00
2022-12-23T05:49:01.772Z,9.10
2022-12-23T05:51:29.699Z,9.00
2022-12-23T05:53:57.244Z,9.00
2022-12-23T05:56:24.210Z,9.00
2022-12-23T05:58:51.228Z,9.10
2022-12-23T06:01:18.891Z,9.00
2022-12-23T06:03:45.992Z,9.00
2022-12-23T06:06:13.250Z,9.00
2022-12-23T06:08:40.221Z,9.00
2022-12-23T06:11:07.282Z,9.00
2022-12-23T06:13:34.292Z,9.00
2022-12-23T06:16:01.318Z,9.10
2022-12-23T06:18:31.437Z,9.10
2022-12-23T06:20:58.381Z,9.10
2022-12-23T06:23:25.338Z,9.10
2022-12-23T06:26:01.997Z,9.00
2022-12-23T06:28:29.508Z,9.00
2022-12-23T06:30:57.326Z,9.00
2022-12-23T06:33:25.319Z,9.00
2022-12-23T06:35:52.295Z,9.00
2022-12-23T06:38:19.263Z,9.10
2022-12-23T06:40:46.229Z,9.00
2022-12-23T06:43:13.599Z,9.00
2022-12-23T06:45:41.545Z,9.00
2022-12-23T06:48:08.569Z,9.00
2022-12-23T06:50:35.519Z,9.00
2022-12-23T06:53:02.444Z,9.00
2022-12-23T06:55:29.630Z,9.00
2022-12-23T06:57:56.561Z,9.00
2022-12-23T07:00:23.658Z,9.00
2022-12-23T07:02:50.727Z,9.00
2022-12-23T07:05:17.785Z,9.00
2022-12-23T07:07:44.798Z,9.00
2022-12-23T07:10:11.780Z,9.10
2022-12-23T07:12:38.771Z,9.10
2022-12-23T07:15:07.178Z,9.10
2022-12-23T07:17:34.378Z,9.10
2022-12-23T07:20:01.553Z,9.10
2022-12-23T07:22:28.653Z,9.10
2022-12-23T07:24:55.636Z,9.10
2022-12-23T07:27:22.700Z,9.10
2022-12-23T07:29:49.657Z,9.10
2022-12-23T07:32:16.776Z,9.10
2022-12-23T07:34:43.672Z,9.10
2022-12-23T07:37:10.691Z,9.10
2022-12-23T07:39:38.105Z,9.10
2022-12-23T07:42:33.894Z,9.10
2022-12-23T07:44:51.996Z,9.10
2022-12-23T07:47:18.958Z,9.10
2022-12-23T07:49:45.861Z,9.10
2022-12-23T07:52:12.798Z,9.20
2022-12-23T07:54:39.705Z,9.20
2022-12-23T07:57:06.774Z,9.20
2022-12-23T07:59:33.763Z,9.30
2022-12-23T08:02:00.894Z,9.20
2022-12-23T08:04:28.247Z,9.30
2022-12-23T08:06:55.223Z,9.30
2022-12-23T08:09:22.260Z,9.40
2022-12-23T08:11:49.537Z,9.40
2022-12-23T08:14:16.478Z,9.50
2022-12-23T08:16:44.445Z,9.60
2022-12-23T08:19:11.575Z,9.70
2022-12-23T08:21:38.566Z,9.70
2022-12-23T08:24:05.873Z,9.80
2022-12-23T08:26:34.256Z,9.80
2022-12-23T08:29:01.487Z,9.80
2022-12-23T08:31:31.986Z,9.90
2022-12-23T08:34:00.697Z,10.00
2022-12-23T08:36:33.196Z,10.00
2022-12-23T08:39:02.571Z,10.00
2022-12-23T08:41:32.453Z,10.00
2022-12-23T08:43:59.662Z,10.00
2022-12-23T08:46:27.561Z,10.10
2022-12-23T08:48:55.048Z,10.10
2022-12-23T08:51:23.775Z,10.10
2022-12-23T08:53:56.285Z,10.10
2022-12-23T08:56:29.230Z,10.20
2022-12-23T08:58:56.490Z,10.30
2022-12-23T09:01:26.020Z,10.30
2022-12-23T09:03:53.142Z,10.40
2022-12-23T09:06:29.558Z,10.40
2022-12-23T09:08:57.228Z,10.50
2022-12-23T09:11:27.086Z,10.40
2022-12-23T09:13:54.843Z,10.40
2022-12-23T09:16:23.906Z,10.30
2022-12-23T09:18:50.960Z,10.20
2022-12-23T09:21:20.082Z,10.20
2022-12-23T09:23:47.617Z,10.20
2022-12-23T09:26:26.429Z,10.20
2022-12-23T09:28:54.129Z,10.10
2022-12-23T09:31:23.710Z,10.10
2022-12-23T09:33:52.410Z,10.10
2022-12-23T09:36:20.380Z,10.10
2022-12-23T09:38:47.497Z,10.10
2022-12-23T09:41:33.088Z,10.10
2022-12-23T09:44:29.008Z,10.00
2022-12-23T09:47:02.202Z,10.00
2022-12-23T09:49:29.261Z,10.00
2022-12-23T09:52:01.688Z,10.00
2022-12-23T09:54:33.379Z,10.00
2022-12-23T09:57:15.744Z,9.90
2022-12-23T09:59:54.367Z,10.00
2022-12-23T10:02:37.461Z,9.90
2022-12-23T10:05:29.060Z,10.00
2022-12-23T10:08:07.531Z,9.90
2022-12-23T10:10:47.825Z,10.00
2022-12-23T10:13:30.024Z,10.00
2022-12-23T10:16:03.532Z,9.90
2022-12-23T10:18:49.639Z,9.90
2022-12-23T10:21:16.546Z,9.90
2022-12-23T10:23:50.415Z,10.00
2022-12-23T10:26:23.790Z,10.00
2022-12-23T10:29:01.414Z,10.00
2022-12-23T10:31:49.363Z,10.10
2022-12-23T10:34:38.915Z,10.20
2022-12-23T10:37:15.836Z,10.30
2022-12-23T10:40:03.517Z,10.30
2022-12-23T10:42:51.712Z,10.30
2022-12-23T10:45:32.215Z,10.40
2022-12-23T10:48:20.712Z,10.40
2022-12-23T10:50:54.635Z,10.40
2022-12-23T10:53:48.445Z,10.50
2022-12-23T10:56:15.747Z,10.60
2022-12-23T10:58:45.634Z,10.60
2022-12-23T11:01:22.111Z,10.70
2022-12-23T11:04:16.407Z,10.70
2022-12-23T11:06:55.859Z,10.80
2022-12-23T11:09:43.487Z,10.90
2022-12-23T11:12:12.667Z,10.90
2022-12-23T11:14:54.390Z,10.90
2022-12-23T11:17:26.742Z,10.90
2022-12-23T11:20:18.643Z,10.90
2022-12-23T11:22:53.108Z,10.90
2022-12-23T11:25:27.225Z,10.80
2022-12-23T11:27:58.866Z,10.80
2022-12-23T11:30:26.424Z,10.70
2022-12-23T11:32:53.422Z,10.80
2022-12-23T11:35:29.544Z,10.80
2022-12-23T11:37:58.808Z,10.80
2022-12-23T11:40:25.717Z,10.70
2022-12-23T11:43:04.126Z,10.80
2022-12-23T11:45:36.132Z,10.80
2022-12-23T11:48:26.283Z,10.80
2022-12-23T11:51:01.740Z,10.80
2022-12-23T11:53:29.369Z,10.80
2022-12-23T11:56:12.667Z,10.90
2022-12-23T11:59:07.052Z,10.90
2022-12-23T12:01:35.462Z,10.90
2022-12-23T12:04:07.921Z,10.90
2022-12-23T12:06:35.254Z,10.90
2022-12-23T12:09:04.673Z,10.90
2022-12-23T12:11:44.406Z,10.80
2022-12-23T12:14:25.679Z,10.90
2022-12-23T12:17:07.846Z,10.90
2022-12-23T12:19:59.892Z,10.80
2022-12-23T12:22:41.601Z,10.90
2022-12-23T12:25:18.751Z,10.80
2022-12-23T12:28:07.571Z,10.70
2022-12-23T12:30:40.174Z,10.80
2022-12-23T12:33:13.495Z,10.70
2022-12-23T12:36:05.327Z,10.70
2022-12-23T12:38:36.201Z,10.70
2022-12-23T12:41:18.305Z,10.70
2022-12-23T12:43:56.495Z,10.70
2022-12-23T12:46:32.724Z,10.60
2022-12-23T12:49:20.495Z,10.60
2022-12-23T12:52:13.728Z,10.60
2022-12-23T12:54:51.055Z,10.60
2022-12-23T12:57:20.344Z,10.60
2022-12-23T12:59:51.235Z,10.60
2022-12-23T13:02:33.520Z,10.60
2022-12-23T13:05:08.221Z,10.60
2022-12-23T13:07:35.128Z,10.60
2022-12-23T13:10:29.508Z,10.60
2022-12-23T13:13:19.402Z,10.60
2022-12-23T13:16:15.456Z,10.60
2022-12-23T13:18:55.867Z,10.60
2022-12-23T13:21:22.704Z,10.60
2022-12-23T13:24:13.301Z,10.60
2022-12-23T13:26:54.574Z,10.60
2022-12-23T13:29:56.205Z,10.60
2022-12-23T13:32:52.315Z,10.60
2022-12-23T13:35:28.380Z,10.50
2022-12-23T13:38:20.187Z,10.60
2022-12-23T13:41:18.509Z,10.60
2022-12-23T13:44:05.361Z,10.60
2022-12-23T13:47:19.094Z,10.60
2022-12-23T13:50:19.563Z,10.60
2022-12-23T13:53:02.235Z,10.50
2022-12-23T13:55:53.157Z,10.60
2022-12-23T13:58:28.374Z,10.60
2022-12-23T14:01:18.656Z,10.50
2022-12-23T14:03:49.325Z,10.60
2022-12-23T14:06:25.440Z,10.60
2022-12-23T14:08:54.104Z,10.50
2022-12-23T14:11:28.574Z,10.50
2022-12-23T14:14:05.699Z,10.50
2022-12-23T14:16:54.746Z,10.50
2022-12-23T14:19:51.173Z,10.50
2022-12-23T14:22:33.310Z,10.50
2022-12-23T14:25:32.211Z,10.40
2022-12-23T14:28:06.223Z,10.40
2022-12-23T14:30:37.497Z,10.40
2022-12-23T14:33:14.225Z,10.50
2022-12-23T14:35:42.945Z,10.50
2022-12-23T14:38:26.519Z,10.50
2022-12-23T14:40:59.897Z,10.50
2022-12-23T14:43:46.374Z,10.50
2022-12-23T14:46:51.617Z,10.50
2022-12-23T14:49:44.291Z,10.50
2022-12-23T14:52:40.932Z,10.50
2022-12-23T14:55:31.865Z,10.50
2022-12-23T14:58:23.134Z,10.50
2022-12-23T15:00:55.329Z,10.50
2022-12-23T15:03:23.325Z,10.50
2022-12-23T15:05:51.380Z,10.50
2022-12-23T15:08:31.185Z,10.50
2022-12-23T15:10:59.104Z,10.50
2022-12-23T15:13:28.819Z,10.50
2022-12-23T15:16:01.250Z,10.40
2022-12-23T15:18:29.061Z,10.40
2022-12-23T15:21:11.232Z,10.50
2022-12-23T15:23:38.142Z,10.50
2022-12-23T15:26:05.181Z,10.50
2022-12-23T15:28:39.414Z,10.50
2022-12-23T15:31:15.308Z,10.60
2022-12-23T15:34:03.980Z,10.60
2022-12-23T15:36:36.273Z,10.70
2022-12-23T15:39:14.138Z,10.70
2022-12-23T15:41:45.835Z,10.70
2022-12-23T15:44:22.848Z,10.70
2022-12-23T15:46:51.359Z,10.80
2022-12-23T15:49:20.910Z,10.80
2022-12-23T15:52:16.466Z,10.80
2022-12-23T15:55:12.846Z,10.80
2022-12-23T15:57:49.985Z,10.90
2022-12-23T16:00:36.947Z,11.00
2022-12-23T16:03:07.764Z,11.00
2022-12-23T16:05:39.094Z,11.00
2022-12-23T16:08:11.333Z,11.00
2022-12-23T16:10:38.630Z,11.00
2022-12-23T16:13:13.208Z,11.10
2022-12-23T16:15:40.128Z,11.10
2022-12-23T16:18:19.385Z,11.10
2022-12-23T16:20:49.950Z,11.10
2022-12-23T16:23:17.867Z,11.20
2022-12-23T16:25:51.388Z,11.20
2022-12-23T16:28:27.792Z,11.30
2022-12-23T16:30:57.439Z,11.30
2022-12-23T16:33:33.264Z,11.30
2022-12-23T16:36:16.643Z,11.30
2022-12-23T16:38:43.948Z,11.30
2022-12-23T16:41:10.911Z,11.30
2022-12-23T16:43:37.882Z,11.30
2022-12-23T16:46:05.796Z,11.40
2022-12-23T16:48:36.943Z,11.40
2022-12-23T16:51:11.152Z,11.50
2022-12-23T16:53:39.299Z,11.50
2022-12-23T16:56:14.007Z,11.50
2022-12-23T16:58:41.207Z,11.40
2022-12-23T17:01:15.220Z,11.50
2022-12-23T17:03:42.213Z,11.50
2022-12-23T17:06:14.379Z,11.50
2022-12-23T17:08:41.717Z,11.50
2022-12-23T17:11:16.335Z,11.50
2022-12-23T17:13:43.323Z,11.40
2022-12-23T17:16:21.926Z,11.50
2022-12-23T17:18:50.373Z,11.50
2022-12-23T17:21:29.224Z,11.50
2022-12-23T17:24:03.508Z,11.50
2022-12-23T17:26:30.745Z,11.50
2022-12-23T17:28:57.959Z,11.50
2022-12-23T17:31:27.149Z,11.50
2022-12-23T17:33:54.596Z,11.50
2022-12-23T17:36:22.320Z,11.50
2022-12-23T17:38:49.415Z,11.50
2022-12-23T17:41:31.299Z,11.50
2022-12-23T17:43:59.034Z,11.50
2022-12-23T17:46:27.157Z,11.50
2022-12-23T17:48:54.235Z,11.50
2022-12-23T17:51:22.782Z,11.50
2022-12-23T17:53:57.056Z,11.60
2022-12-23T17:56:27.290Z,11.50
2022-12-23T17:58:54.518Z,11.50
2022-12-23T18:01:28.195Z,11.50
2022-12-23T18:03:56.775Z,11.50
2022-12-23T18:06:25.104Z,11.60
2022-12-23T18:08:52.048Z,11.60
2022-12-23T18:11:33.208Z,11.60
2022-12-23T18:14:00.990Z,11.60
2022-12-23T18:16:28.147Z,11.60
2022-12-23T18:18:55.215Z,11.60
2022-12-23T18:21:28.025Z,11.60
2022-12-23T18:23:58.846Z,11.60
2022-12-23T18:26:26.131Z,11.60
2022-12-23T18:28:54.451Z,11.70
2022-12-23T18:31:24.449Z,11.60
2022-12-23T18:33:52.973Z,11.60
2022-12-23T18:36:28.897Z,11.50
2022-12-23T18:38:57.226Z,11.60
2022-12-23T18:41:25.460Z,11.60
2022-12-23T18:43:53.433Z,11.50
2022-12-23T18:46:20.935Z,11.50
2022-12-23T18:48:48.601Z,11.60
2022-12-23T18:51:21.289Z,11.50
2022-12-23T18:53:48.837Z,11.60
2022-12-23T18:56:19.323Z,11.60
2022-12-23T18:58:46.372Z,11.50
2022-12-23T19:01:17.273Z,11.50
2022-12-23T19:03:44.967Z,11.50
2022-12-23T19:06:15.679Z,11.40
2022-12-23T19:08:43.832Z,11.40
2022-12-23T19:11:17.131Z,11.40
2022-12-23T19:13:44.818Z,11.40
2022-12-23T19:16:17.443Z,11.40
2022-12-23T19:18:45.754Z,11.50
2022-12-23T19:21:12.737Z,11.40
2022-12-23T19:23:41.245Z,11.40
2022-12-23T19:26:13.383Z,11.50
2022-12-23T19:28:43.690Z,11.40
2022-12-23T19:31:12.622Z,11.40
2022-12-23T19:33:40.876Z,11.30
2022-12-23T19:36:12.540Z,11.40
2022-12-23T19:38:39.731Z,11.40
2022-12-23T19:41:10.258Z,11.30
2022-12-23T19:43:38.802Z,11.30
2022-12-23T19:46:08.447Z,11.30
2022-12-23T19:48:36.527Z,11.30
2022-12-23T19:51:08.935Z,11.40
2022-12-23T19:53:36.742Z,11.30
2022-12-23T19:56:11.114Z,11.30
2022-12-23T19:58:40.038Z,11.30
2022-12-23T20:01:12.238Z,11.40
2022-12-23T20:06:26.704Z,11.30
2022-12-23T20:09:00.115Z,11.30
2022-12-23T20:11:30.769Z,11.30
2022-12-23T20:13:58.818Z,11.30
2022-12-23T20:16:26.309Z,11.30
2022-12-23T20:18:54.066Z,11.30
2022-12-23T20:21:21.698Z,11.30
2022-12-23T20:23:49.444Z,11.30
2022-12-23T20:26:18.505Z,11.40
2022-12-23T20:28:46.316Z,11.30
2022-12-23T20:31:26.803Z,11.30
2022-12-23T20:33:55.681Z,11.30
2022-12-23T20:36:28.537Z,11.30
2022-12-23T20:38:56.268Z,11.20
2022-12-23T20:41:28.268Z,11.30
2022-12-23T20:46:42.236Z,11.20
2022-12-23T20:49:10.280Z,11.20
2022-12-23T20:51:37.332Z,11.20
2022-12-23T20:54:04.454Z,11.20
2022-12-23T20:56:31.897Z,11.10
2022-12-23T20:59:00.200Z,11.10
2022-12-23T21:01:35.461Z,11.10
2022-12-23T21:04:06.864Z,11.00
2022-12-23T21:06:34.577Z,11.00
2022-12-23T21:09:04.977Z,11.00
2022-12-23T21:11:38.205Z,11.00
2022-12-23T21:14:07.320Z,11.00
2022-12-23T21:16:35.812Z,11.00
2022-12-23T21:19:02.970Z,11.00
2022-12-23T21:21:31.941Z,11.00
2022-12-23T21:24:01.535Z,11.00
2022-12-23T21:26:30.521Z,11.00
2022-12-23T21:29:00.374Z,11.00
2022-12-23T21:31:29.011Z,11.00
2022-12-23T21:33:56.118Z,11.00
2022-12-23T21:36:25.916Z,11.00
2022-12-23T21:38:53.004Z,11.00
2022-12-23T21:41:22.574Z,11.00
2022-12-23T21:43:50.592Z,11.00
2022-12-23T21:46:21.718Z,11.00
2022-12-23T21:48:49.573Z,11.00
2022-12-23T21:51:17.825Z,11.00
2022-12-23T21:53:47.943Z,10.90
2022-12-23T21:56:30.995Z,10.90
2022-12-23T21:59:00.625Z,10.90
2022-12-23T22:01:28.618Z,10.80
2022-12-23T22:03:56.609Z,10.70
2022-12-23T22:06:32.652Z,10.70
2022-12-23T22:08:59.975Z,10.60
2022-12-23T22:11:29.766Z,10.70
2022-12-23T22:13:58.516Z,10.70
2022-12-23T22:16:27.660Z,10.60
2022-12-23T22:18:55.140Z,10.60
2022-12-23T22:21:24.279Z,10.60
2022-12-23T22:23:52.728Z,10.60
2022-12-23T22:26:25.274Z,10.60
2022-12-23T22:28:57.418Z,10.60
2022-12-23T22:31:31.628Z,10.60
2022-12-23T22:33:59.283Z,10.60
2022-12-23T22:36:26.612Z,10.50
2022-12-23T22:38:55.833Z,10.50
2022-12-23T22:41:24.111Z,10.50
2022-12-23T22:43:51.239Z,10.50
2022-12-23T22:46:18.625Z,10.50
2022-12-23T22:48:46.169Z,10.50
2022-12-23T22:51:17.150Z,10.50
2022-12-23T22:53:44.622Z,10.50
2022-12-23T22:56:13.409Z,10.50
2022-12-23T22:58:40.531Z,10.50
2022-12-23T23:01:17.523Z,10.40
2022-12-23T23:03:44.475Z,10.30
2022-12-23T23:06:11.669Z,10.20
2022-12-23T23:08:38.687Z,10.10
2022-12-23T23:11:05.752Z,10.10
2022-12-23T23:13:35.201Z,10.00
2022-12-23T23:16:02.692Z,9.90
2022-12-23T23:18:29.891Z,9.80
2022-12-23T23:20:57.027Z,9.80
2022-12-23T23:23:24.125Z,9.80
2022-12-23T23:25:51.473Z,9.70
2022-12-23T23:28:18.724Z,9.60
2022-12-23T23:30:45.812Z,9.60
2022-12-23T23:33:13.107Z,9.60
2022-12-23T23:35:40.061Z,9.50
2022-12-23T23:38:07.292Z,9.60
2022-12-23T23:40:34.337Z,9.60
2022-12-23T23:43:01.471Z,9.60
2022-12-23T23:45:28.574Z,9.50
2022-12-23T23:47:55.789Z,9.50
2022-12-23T23:50:23.074Z,9.50
2022-12-23T23:52:50.138Z,9.40
2022-12-23T23:55:17.177Z,9.40
2022-12-23T23:57:44.147Z,9.40
